sensor_id;sensor_type;location;lat;lon;timestamp;temperature;humidity
7576;DHT22;3829;50.798;4.358;2023-08-30T00:01:48;14.40;99.90
7576;DHT22;3829;50.798;4.358;2023-08-30T00:04:14;14.40;99.90
7576;DHT22;3829;50.798;4.358;2023-08-30T00:06:39;14.40;99.90
7576;DHT22;3829;50.798;4.358;2023-08-30T00:09:05;14.40;99.90
7576;DHT22;3829;50.798;4.358;2023-08-30T00:11:31;14.40;99.90
7576;DHT22;3829;50.798;4.358;2023-08-30T00:14:06;14.40;99.90
7576;DHT22;3829;50.798;4.358;2023-08-30T00:16:33;14.40;99.90
7576;DHT22;3829;50.798;4.358;2023-08-30T00:18:59;14.40;99.90
7576;DHT22;3829;50.798;4.358;2023-08-30T00:21:24;14.40;99.90
7576;DHT22;3829;50.798;4.358;2023-08-30T00:23:51;14.40;99.90
7576;DHT22;3829;50.798;4.358;2023-08-30T00:26:17;14.40;99.90
7576;DHT22;3829;50.798;4.358;2023-08-30T00:28:42;14.40;99.90
7576;DHT22;3829;50.798;4.358;2023-08-30T00:31:08;14.20;99.90
7576;DHT22;3829;50.798;4.358;2023-08-30T00:33:34;14.20;99.90
7576;DHT22;3829;50.798;4.358;2023-08-30T00:36:00;14.20;99.90
7576;DHT22;3829;50.798;4.358;2023-08-30T00:38:27;14.10;99.90
7576;DHT22;3829;50.798;4.358;2023-08-30T00:40:53;14.00;99.90
7576;DHT22;3829;50.798;4.358;2023-08-30T00:43:20;13.90;99.90
7576;DHT22;3829;50.798;4.358;2023-08-30T00:45:47;13.80;99.90
7576;DHT22;3829;50.798;4.358;2023-08-30T00:48:13;13.70;99.90
7576;DHT22;3829;50.798;4.358;2023-08-30T00:50:39;13.70;99.90
7576;DHT22;3829;50.798;4.358;2023-08-30T00:53:06;13.50;99.90
7576;DHT22;3829;50.798;4.358;2023-08-30T00:55:33;13.60;99.90
7576;DHT22;3829;50.798;4.358;2023-08-30T00:58:00;13.70;99.90
7576;DHT22;3829;50.798;4.358;2023-08-30T01:00:28;13.60;99.90
7576;DHT22;3829;50.798;4.358;2023-08-30T01:02:54;13.60;99.90
7576;DHT22;3829;50.798;4.358;2023-08-30T01:05:20;13.50;99.90
7576;DHT22;3829;50.798;4.358;2023-08-30T01:07:46;13.60;99.90
7576;DHT22;3829;50.798;4.358;2023-08-30T01:10:11;13.40;99.90
7576;DHT22;3829;50.798;4.358;2023-08-30T01:12:40;13.50;99.90
7576;DHT22;3829;50.798;4.358;2023-08-30T01:15:12;13.50;99.90
7576;DHT22;3829;50.798;4.358;2023-08-30T01:17:40;13.40;99.90
7576;DHT22;3829;50.798;4.358;2023-08-30T01:20:07;13.40;99.90
7576;DHT22;3829;50.798;4.358;2023-08-30T01:22:55;13.40;99.90
7576;DHT22;3829;50.798;4.358;2023-08-30T01:25:50;13.40;99.90
7576;DHT22;3829;50.798;4.358;2023-08-30T01:28:21;13.30;99.90
7576;DHT22;3829;50.798;4.358;2023-08-30T01:30:48;13.40;99.90
7576;DHT22;3829;50.798;4.358;2023-08-30T01:33:15;13.40;99.90
7576;DHT22;3829;50.798;4.358;2023-08-30T01:35:41;13.40;99.90
7576;DHT22;3829;50.798;4.358;2023-08-30T01:38:07;13.30;99.90
7576;DHT22;3829;50.798;4.358;2023-08-30T01:40:37;13.40;99.90
7576;DHT22;3829;50.798;4.358;2023-08-30T01:43:04;13.40;99.90
7576;DHT22;3829;50.798;4.358;2023-08-30T01:45:32;13.30;99.90
7576;DHT22;3829;50.798;4.358;2023-08-30T01:47:58;13.30;99.90
7576;DHT22;3829;50.798;4.358;2023-08-30T01:50:25;13.40;99.90
7576;DHT22;3829;50.798;4.358;2023-08-30T01:52:52;13.30;99.90
7576;DHT22;3829;50.798;4.358;2023-08-30T01:55:18;13.20;99.90
7576;DHT22;3829;50.798;4.358;2023-08-30T01:57:45;13.00;99.90
7576;DHT22;3829;50.798;4.358;2023-08-30T02:00:12;13.10;99.90
7576;DHT22;3829;50.798;4.358;2023-08-30T02:02:37;13.10;99.90
7576;DHT22;3829;50.798;4.358;2023-08-30T02:05:03;13.00;99.90
7576;DHT22;3829;50.798;4.358;2023-08-30T02:07:36;13.00;99.90
7576;DHT22;3829;50.798;4.358;2023-08-30T02:10:07;13.10;99.90
7576;DHT22;3829;50.798;4.358;2023-08-30T02:12:44;13.20;99.90
7576;DHT22;3829;50.798;4.358;2023-08-30T02:15:12;13.30;99.90
7576;DHT22;3829;50.798;4.358;2023-08-30T02:17:38;13.40;99.90
7576;DHT22;3829;50.798;4.358;2023-08-30T02:20:05;13.50;99.90
7576;DHT22;3829;50.798;4.358;2023-08-30T02:22:32;13.50;99.90
7576;DHT22;3829;50.798;4.358;2023-08-30T02:24:59;13.60;99.90
7576;DHT22;3829;50.798;4.358;2023-08-30T02:27:26;13.80;99.90
7576;DHT22;3829;50.798;4.358;2023-08-30T02:29:52;14.00;99.90
7576;DHT22;3829;50.798;4.358;2023-08-30T02:32:17;14.00;99.90
7576;DHT22;3829;50.798;4.358;2023-08-30T02:34:49;14.00;99.90
7576;DHT22;3829;50.798;4.358;2023-08-30T02:37:15;14.20;99.90
7576;DHT22;3829;50.798;4.358;2023-08-30T02:39:40;14.20;99.90
7576;DHT22;3829;50.798;4.358;2023-08-30T02:42:06;14.30;99.90
7576;DHT22;3829;50.798;4.358;2023-08-30T02:44:31;14.30;99.90
7576;DHT22;3829;50.798;4.358;2023-08-30T02:46:57;14.40;99.90
7576;DHT22;3829;50.798;4.358;2023-08-30T02:49:22;14.50;99.90
7576;DHT22;3829;50.798;4.358;2023-08-30T02:51:48;14.60;99.90
7576;DHT22;3829;50.798;4.358;2023-08-30T02:54:14;14.70;99.90
7576;DHT22;3829;50.798;4.358;2023-08-30T02:56:41;14.70;99.90
7576;DHT22;3829;50.798;4.358;2023-08-30T02:59:08;14.80;99.90
7576;DHT22;3829;50.798;4.358;2023-08-30T03:01:35;14.70;99.90
7576;DHT22;3829;50.798;4.358;2023-08-30T03:04:00;14.60;99.90
7576;DHT22;3829;50.798;4.358;2023-08-30T03:06:26;14.60;99.90
7576;DHT22;3829;50.798;4.358;2023-08-30T03:08:53;14.60;99.90
7576;DHT22;3829;50.798;4.358;2023-08-30T03:11:19;14.50;99.90
7576;DHT22;3829;50.798;4.358;2023-08-30T03:13:45;14.50;99.90
7576;DHT22;3829;50.798;4.358;2023-08-30T03:16:12;14.30;99.90
7576;DHT22;3829;50.798;4.358;2023-08-30T03:18:39;14.30;99.90
7576;DHT22;3829;50.798;4.358;2023-08-30T03:21:05;14.30;99.90
7576;DHT22;3829;50.798;4.358;2023-08-30T03:23:31;14.30;99.90
7576;DHT22;3829;50.798;4.358;2023-08-30T03:25:59;14.40;99.90
7576;DHT22;3829;50.798;4.358;2023-08-30T03:28:24;14.40;99.90
7576;DHT22;3829;50.798;4.358;2023-08-30T03:30:50;14.30;99.90
7576;DHT22;3829;50.798;4.358;2023-08-30T03:33:16;14.30;99.90
7576;DHT22;3829;50.798;4.358;2023-08-30T03:35:41;14.30;99.90
7576;DHT22;3829;50.798;4.358;2023-08-30T03:38:07;14.30;99.90
7576;DHT22;3829;50.798;4.358;2023-08-30T03:40:33;14.40;99.90
7576;DHT22;3829;50.798;4.358;2023-08-30T03:42:58;14.50;99.90
7576;DHT22;3829;50.798;4.358;2023-08-30T03:45:24;14.40;99.90
7576;DHT22;3829;50.798;4.358;2023-08-30T03:47:49;14.40;99.90
7576;DHT22;3829;50.798;4.358;2023-08-30T03:50:15;14.40;99.90
7576;DHT22;3829;50.798;4.358;2023-08-30T03:52:40;14.40;99.90
7576;DHT22;3829;50.798;4.358;2023-08-30T03:55:06;14.30;99.90
7576;DHT22;3829;50.798;4.358;2023-08-30T03:57:32;14.40;99.90
7576;DHT22;3829;50.798;4.358;2023-08-30T03:59:57;14.40;99.90
7576;DHT22;3829;50.798;4.358;2023-08-30T04:02:23;14.40;99.90
7576;DHT22;3829;50.798;4.358;2023-08-30T04:04:49;14.40;99.90
7576;DHT22;3829;50.798;4.358;2023-08-30T04:07:15;14.40;99.90
7576;DHT22;3829;50.798;4.358;2023-08-30T04:09:41;14.30;99.90
7576;DHT22;3829;50.798;4.358;2023-08-30T04:12:06;14.40;99.90
7576;DHT22;3829;50.798;4.358;2023-08-30T04:14:32;14.50;99.90
7576;DHT22;3829;50.798;4.358;2023-08-30T04:16:58;14.60;99.90
7576;DHT22;3829;50.798;4.358;2023-08-30T04:19:23;14.60;99.90
7576;DHT22;3829;50.798;4.358;2023-08-30T04:21:49;14.70;99.90
7576;DHT22;3829;50.798;4.358;2023-08-30T04:24:15;14.60;99.90
7576;DHT22;3829;50.798;4.358;2023-08-30T04:26:41;14.60;99.90
7576;DHT22;3829;50.798;4.358;2023-08-30T04:29:06;14.70;99.90
7576;DHT22;3829;50.798;4.358;2023-08-30T04:31:32;14.60;99.90
7576;DHT22;3829;50.798;4.358;2023-08-30T04:33:57;14.60;99.90
7576;DHT22;3829;50.798;4.358;2023-08-30T04:36:23;14.70;99.90
7576;DHT22;3829;50.798;4.358;2023-08-30T04:38:48;14.60;99.90
7576;DHT22;3829;50.798;4.358;2023-08-30T04:41:14;14.40;99.90
7576;DHT22;3829;50.798;4.358;2023-08-30T04:43:40;14.30;99.90
7576;DHT22;3829;50.798;4.358;2023-08-30T04:46:05;14.20;99.90
7576;DHT22;3829;50.798;4.358;2023-08-30T04:48:31;14.10;99.90
7576;DHT22;3829;50.798;4.358;2023-08-30T04:51:00;14.00;99.90
7576;DHT22;3829;50.798;4.358;2023-08-30T04:53:26;14.00;99.90
7576;DHT22;3829;50.798;4.358;2023-08-30T04:55:52;13.90;99.90
7576;DHT22;3829;50.798;4.358;2023-08-30T04:58:18;14.00;99.90
7576;DHT22;3829;50.798;4.358;2023-08-30T05:00:43;13.90;99.90
7576;DHT22;3829;50.798;4.358;2023-08-30T05:03:09;13.90;99.90
7576;DHT22;3829;50.798;4.358;2023-08-30T05:05:34;13.90;99.90
7576;DHT22;3829;50.798;4.358;2023-08-30T05:08:00;13.90;99.90
7576;DHT22;3829;50.798;4.358;2023-08-30T05:10:25;13.90;99.90
7576;DHT22;3829;50.798;4.358;2023-08-30T05:12:51;13.90;99.90
7576;DHT22;3829;50.798;4.358;2023-08-30T05:15:17;13.90;99.90
7576;DHT22;3829;50.798;4.358;2023-08-30T05:17:43;13.90;99.90
7576;DHT22;3829;50.798;4.358;2023-08-30T05:20:09;13.80;99.90
7576;DHT22;3829;50.798;4.358;2023-08-30T05:22:35;13.90;99.90
7576;DHT22;3829;50.798;4.358;2023-08-30T05:25:00;13.80;99.90
7576;DHT22;3829;50.798;4.358;2023-08-30T05:27:27;13.70;99.90
7576;DHT22;3829;50.798;4.358;2023-08-30T05:29:52;13.70;99.90
7576;DHT22;3829;50.798;4.358;2023-08-30T05:32:18;13.70;99.90
7576;DHT22;3829;50.798;4.358;2023-08-30T05:34:44;13.70;99.90
7576;DHT22;3829;50.798;4.358;2023-08-30T05:37:09;13.70;99.90
7576;DHT22;3829;50.798;4.358;2023-08-30T05:39:35;13.70;99.90
7576;DHT22;3829;50.798;4.358;2023-08-30T05:42:01;13.60;99.90
7576;DHT22;3829;50.798;4.358;2023-08-30T05:44:26;13.70;99.90
7576;DHT22;3829;50.798;4.358;2023-08-30T05:46:52;13.70;99.90
7576;DHT22;3829;50.798;4.358;2023-08-30T05:49:17;13.70;99.90
7576;DHT22;3829;50.798;4.358;2023-08-30T05:51:43;13.60;99.90
7576;DHT22;3829;50.798;4.358;2023-08-30T05:54:09;13.70;99.90
7576;DHT22;3829;50.798;4.358;2023-08-30T05:56:34;13.60;99.90
7576;DHT22;3829;50.798;4.358;2023-08-30T05:59:00;13.60;99.90
7576;DHT22;3829;50.798;4.358;2023-08-30T06:01:25;13.70;99.90
7576;DHT22;3829;50.798;4.358;2023-08-30T06:03:51;13.70;99.90
7576;DHT22;3829;50.798;4.358;2023-08-30T06:06:17;13.70;99.90
7576;DHT22;3829;50.798;4.358;2023-08-30T06:08:42;13.80;99.90
7576;DHT22;3829;50.798;4.358;2023-08-30T06:11:08;13.80;99.90
7576;DHT22;3829;50.798;4.358;2023-08-30T06:13:34;13.90;99.90
7576;DHT22;3829;50.798;4.358;2023-08-30T06:15:59;14.00;99.90
7576;DHT22;3829;50.798;4.358;2023-08-30T06:18:29;14.00;99.90
7576;DHT22;3829;50.798;4.358;2023-08-30T06:20:55;14.10;99.90
7576;DHT22;3829;50.798;4.358;2023-08-30T06:23:20;14.20;99.90
7576;DHT22;3829;50.798;4.358;2023-08-30T06:25:56;14.20;99.90
7576;DHT22;3829;50.798;4.358;2023-08-30T06:28:23;14.20;99.90
7576;DHT22;3829;50.798;4.358;2023-08-30T06:30:49;14.10;99.90
7576;DHT22;3829;50.798;4.358;2023-08-30T06:33:14;14.00;99.90
7576;DHT22;3829;50.798;4.358;2023-08-30T06:35:40;14.00;99.90
7576;DHT22;3829;50.798;4.358;2023-08-30T06:38:06;14.00;99.90
7576;DHT22;3829;50.798;4.358;2023-08-30T06:40:32;14.10;99.90
7576;DHT22;3829;50.798;4.358;2023-08-30T06:42:58;14.00;99.90
7576;DHT22;3829;50.798;4.358;2023-08-30T06:45:24;14.10;99.90
7576;DHT22;3829;50.798;4.358;2023-08-30T06:47:50;14.20;99.90
7576;DHT22;3829;50.798;4.358;2023-08-30T06:50:17;14.20;99.90
7576;DHT22;3829;50.798;4.358;2023-08-30T06:52:42;14.30;99.90
7576;DHT22;3829;50.798;4.358;2023-08-30T06:55:08;14.30;99.90
7576;DHT22;3829;50.798;4.358;2023-08-30T06:57:34;14.20;99.90
7576;DHT22;3829;50.798;4.358;2023-08-30T07:00:00;14.30;99.90
7576;DHT22;3829;50.798;4.358;2023-08-30T07:02:34;14.20;99.90
7576;DHT22;3829;50.798;4.358;2023-08-30T07:05:00;14.20;99.90
7576;DHT22;3829;50.798;4.358;2023-08-30T07:07:26;14.20;99.90
7576;DHT22;3829;50.798;4.358;2023-08-30T07:09:52;14.20;99.90
7576;DHT22;3829;50.798;4.358;2023-08-30T07:12:17;14.20;99.90
7576;DHT22;3829;50.798;4.358;2023-08-30T07:14:43;14.40;99.90
7576;DHT22;3829;50.798;4.358;2023-08-30T07:17:08;14.30;99.90
7576;DHT22;3829;50.798;4.358;2023-08-30T07:19:34;14.30;99.90
7576;DHT22;3829;50.798;4.358;2023-08-30T07:21:59;14.40;99.90
7576;DHT22;3829;50.798;4.358;2023-08-30T07:24:25;14.50;99.90
7576;DHT22;3829;50.798;4.358;2023-08-30T07:26:50;14.60;99.90
7576;DHT22;3829;50.798;4.358;2023-08-30T07:29:16;14.50;99.90
7576;DHT22;3829;50.798;4.358;2023-08-30T07:31:42;14.50;99.90
7576;DHT22;3829;50.798;4.358;2023-08-30T07:34:07;14.50;99.90
7576;DHT22;3829;50.798;4.358;2023-08-30T07:36:33;14.40;99.90
7576;DHT22;3829;50.798;4.358;2023-08-30T07:38:59;14.50;99.90
7576;DHT22;3829;50.798;4.358;2023-08-30T07:41:25;14.60;99.90
7576;DHT22;3829;50.798;4.358;2023-08-30T07:43:50;14.60;99.90
7576;DHT22;3829;50.798;4.358;2023-08-30T07:46:16;14.50;99.90
7576;DHT22;3829;50.798;4.358;2023-08-30T07:48:41;14.50;99.90
7576;DHT22;3829;50.798;4.358;2023-08-30T07:51:07;14.60;99.90
7576;DHT22;3829;50.798;4.358;2023-08-30T07:53:33;14.70;99.90
7576;DHT22;3829;50.798;4.358;2023-08-30T07:55:58;14.70;99.90
7576;DHT22;3829;50.798;4.358;2023-08-30T07:58:24;14.70;99.90
7576;DHT22;3829;50.798;4.358;2023-08-30T08:00:52;14.80;99.90
7576;DHT22;3829;50.798;4.358;2023-08-30T08:03:17;14.80;99.90
7576;DHT22;3829;50.798;4.358;2023-08-30T08:05:46;14.70;99.90
7576;DHT22;3829;50.798;4.358;2023-08-30T08:08:11;14.70;99.90
7576;DHT22;3829;50.798;4.358;2023-08-30T08:10:37;14.80;99.90
7576;DHT22;3829;50.798;4.358;2023-08-30T08:13:03;14.80;99.90
7576;DHT22;3829;50.798;4.358;2023-08-30T08:15:30;14.80;99.90
7576;DHT22;3829;50.798;4.358;2023-08-30T08:17:57;14.80;99.90
7576;DHT22;3829;50.798;4.358;2023-08-30T08:20:23;14.80;99.90
7576;DHT22;3829;50.798;4.358;2023-08-30T08:22:49;14.90;99.90
7576;DHT22;3829;50.798;4.358;2023-08-30T08:25:14;15.00;99.90
7576;DHT22;3829;50.798;4.358;2023-08-30T08:27:41;15.10;99.90
7576;DHT22;3829;50.798;4.358;2023-08-30T08:30:08;15.00;99.90
7576;DHT22;3829;50.798;4.358;2023-08-30T08:32:35;15.00;99.90
7576;DHT22;3829;50.798;4.358;2023-08-30T08:35:00;15.00;99.90
7576;DHT22;3829;50.798;4.358;2023-08-30T08:37:26;15.10;99.90
7576;DHT22;3829;50.798;4.358;2023-08-30T08:39:52;15.10;99.90
7576;DHT22;3829;50.798;4.358;2023-08-30T08:42:19;15.10;99.90
7576;DHT22;3829;50.798;4.358;2023-08-30T08:44:46;15.10;99.90
7576;DHT22;3829;50.798;4.358;2023-08-30T08:47:15;15.20;99.90
7576;DHT22;3829;50.798;4.358;2023-08-30T08:49:42;15.30;99.90
7576;DHT22;3829;50.798;4.358;2023-08-30T08:52:08;15.50;99.90
7576;DHT22;3829;50.798;4.358;2023-08-30T08:54:34;15.70;99.90
7576;DHT22;3829;50.798;4.358;2023-08-30T08:57:00;15.80;99.90
7576;DHT22;3829;50.798;4.358;2023-08-30T08:59:28;15.90;99.90
7576;DHT22;3829;50.798;4.358;2023-08-30T09:01:53;16.00;99.90
7576;DHT22;3829;50.798;4.358;2023-08-30T09:04:19;16.20;99.90
7576;DHT22;3829;50.798;4.358;2023-08-30T09:06:45;16.40;99.90
7576;DHT22;3829;50.798;4.358;2023-08-30T09:09:11;16.60;99.90
7576;DHT22;3829;50.798;4.358;2023-08-30T09:11:37;16.90;99.90
7576;DHT22;3829;50.798;4.358;2023-08-30T09:14:02;16.90;99.90
7576;DHT22;3829;50.798;4.358;2023-08-30T09:16:28;17.00;99.90
7576;DHT22;3829;50.798;4.358;2023-08-30T09:19:01;16.90;99.90
7576;DHT22;3829;50.798;4.358;2023-08-30T09:21:28;16.90;99.90
7576;DHT22;3829;50.798;4.358;2023-08-30T09:24:00;16.90;99.90
7576;DHT22;3829;50.798;4.358;2023-08-30T09:26:26;17.10;99.90
7576;DHT22;3829;50.798;4.358;2023-08-30T09:28:55;17.10;99.90
7576;DHT22;3829;50.798;4.358;2023-08-30T09:31:21;17.20;99.90
7576;DHT22;3829;50.798;4.358;2023-08-30T09:33:46;17.20;99.90
7576;DHT22;3829;50.798;4.358;2023-08-30T09:36:13;17.10;99.90
7576;DHT22;3829;50.798;4.358;2023-08-30T09:38:39;17.00;99.90
7576;DHT22;3829;50.798;4.358;2023-08-30T09:41:05;17.10;99.90
7576;DHT22;3829;50.798;4.358;2023-08-30T09:43:32;17.00;99.90
7576;DHT22;3829;50.798;4.358;2023-08-30T09:46:03;17.10;99.90
7576;DHT22;3829;50.798;4.358;2023-08-30T09:48:29;17.00;99.90
7576;DHT22;3829;50.798;4.358;2023-08-30T09:50:58;17.00;99.90
7576;DHT22;3829;50.798;4.358;2023-08-30T09:53:26;16.90;99.90
7576;DHT22;3829;50.798;4.358;2023-08-30T09:55:55;16.90;99.90
7576;DHT22;3829;50.798;4.358;2023-08-30T09:58:21;16.90;99.90
7576;DHT22;3829;50.798;4.358;2023-08-30T10:00:48;16.90;99.90
7576;DHT22;3829;50.798;4.358;2023-08-30T10:03:16;17.00;99.90
7576;DHT22;3829;50.798;4.358;2023-08-30T10:05:43;17.00;99.90
7576;DHT22;3829;50.798;4.358;2023-08-30T10:08:11;17.00;99.90
7576;DHT22;3829;50.798;4.358;2023-08-30T10:10:38;16.90;99.90
7576;DHT22;3829;50.798;4.358;2023-08-30T10:13:05;16.80;99.90
7576;DHT22;3829;50.798;4.358;2023-08-30T10:15:33;16.60;99.90
7576;DHT22;3829;50.798;4.358;2023-08-30T10:18:01;16.50;99.90
7576;DHT22;3829;50.798;4.358;2023-08-30T10:20:28;16.40;99.90
7576;DHT22;3829;50.798;4.358;2023-08-30T10:22:55;16.40;99.90
7576;DHT22;3829;50.798;4.358;2023-08-30T10:25:27;16.60;99.90
7576;DHT22;3829;50.798;4.358;2023-08-30T10:27:55;16.70;99.90
7576;DHT22;3829;50.798;4.358;2023-08-30T10:30:21;16.90;99.90
7576;DHT22;3829;50.798;4.358;2023-08-30T10:32:48;17.10;99.90
7576;DHT22;3829;50.798;4.358;2023-08-30T10:35:15;17.20;99.90
7576;DHT22;3829;50.798;4.358;2023-08-30T10:37:41;17.60;99.90
7576;DHT22;3829;50.798;4.358;2023-08-30T10:40:07;17.80;99.90
7576;DHT22;3829;50.798;4.358;2023-08-30T10:42:33;17.90;99.90
7576;DHT22;3829;50.798;4.358;2023-08-30T10:45:02;18.20;99.90
7576;DHT22;3829;50.798;4.358;2023-08-30T10:47:30;18.50;99.90
7576;DHT22;3829;50.798;4.358;2023-08-30T10:49:58;18.60;99.90
7576;DHT22;3829;50.798;4.358;2023-08-30T10:52:26;18.60;99.90
7576;DHT22;3829;50.798;4.358;2023-08-30T10:54:51;18.90;99.90
7576;DHT22;3829;50.798;4.358;2023-08-30T10:57:20;18.90;99.90
7576;DHT22;3829;50.798;4.358;2023-08-30T11:02:44;18.60;99.90
7576;DHT22;3829;50.798;4.358;2023-08-30T11:05:11;18.70;99.90
7576;DHT22;3829;50.798;4.358;2023-08-30T11:07:37;18.80;99.90
7576;DHT22;3829;50.798;4.358;2023-08-30T11:10:06;18.90;99.90
7576;DHT22;3829;50.798;4.358;2023-08-30T11:12:32;18.90;99.90
7576;DHT22;3829;50.798;4.358;2023-08-30T11:14:58;19.10;99.90
7576;DHT22;3829;50.798;4.358;2023-08-30T11:17:25;19.40;99.90
7576;DHT22;3829;50.798;4.358;2023-08-30T11:19:57;19.50;99.90
7576;DHT22;3829;50.798;4.358;2023-08-30T11:22:23;19.80;99.90
7576;DHT22;3829;50.798;4.358;2023-08-30T11:24:49;20.00;99.90
7576;DHT22;3829;50.798;4.358;2023-08-30T11:27:17;19.70;99.90
7576;DHT22;3829;50.798;4.358;2023-08-30T11:29:43;19.50;99.90
7576;DHT22;3829;50.798;4.358;2023-08-30T11:32:08;19.30;99.90
7576;DHT22;3829;50.798;4.358;2023-08-30T11:34:34;19.40;99.90
7576;DHT22;3829;50.798;4.358;2023-08-30T11:37:00;19.30;99.90
7576;DHT22;3829;50.798;4.358;2023-08-30T11:39:28;19.40;99.90
7576;DHT22;3829;50.798;4.358;2023-08-30T11:41:54;19.40;99.90
7576;DHT22;3829;50.798;4.358;2023-08-30T11:44:23;19.10;99.90
7576;DHT22;3829;50.798;4.358;2023-08-30T11:46:48;19.10;99.90
7576;DHT22;3829;50.798;4.358;2023-08-30T11:49:15;19.20;99.90
7576;DHT22;3829;50.798;4.358;2023-08-30T11:51:42;19.10;99.90
7576;DHT22;3829;50.798;4.358;2023-08-30T11:54:07;19.00;99.90
7576;DHT22;3829;50.798;4.358;2023-08-30T11:56:34;19.20;99.90
7576;DHT22;3829;50.798;4.358;2023-08-30T11:59:01;19.40;99.90
7576;DHT22;3829;50.798;4.358;2023-08-30T12:01:28;19.50;99.90
7576;DHT22;3829;50.798;4.358;2023-08-30T12:03:53;19.40;99.90
7576;DHT22;3829;50.798;4.358;2023-08-30T12:06:23;19.60;99.90
7576;DHT22;3829;50.798;4.358;2023-08-30T12:08:57;19.70;99.90
7576;DHT22;3829;50.798;4.358;2023-08-30T12:11:23;19.60;99.90
7576;DHT22;3829;50.798;4.358;2023-08-30T12:13:48;19.80;99.90
7576;DHT22;3829;50.798;4.358;2023-08-30T12:16:17;19.40;99.90
7576;DHT22;3829;50.798;4.358;2023-08-30T12:18:43;19.20;99.90
7576;DHT22;3829;50.798;4.358;2023-08-30T12:21:09;19.30;99.90
7576;DHT22;3829;50.798;4.358;2023-08-30T12:23:34;19.70;99.90
7576;DHT22;3829;50.798;4.358;2023-08-30T12:26:02;19.60;99.90
7576;DHT22;3829;50.798;4.358;2023-08-30T12:28:30;19.90;99.90
7576;DHT22;3829;50.798;4.358;2023-08-30T12:30:56;19.90;99.90
7576;DHT22;3829;50.798;4.358;2023-08-30T12:33:22;19.90;99.90
7576;DHT22;3829;50.798;4.358;2023-08-30T12:35:48;19.70;99.90
7576;DHT22;3829;50.798;4.358;2023-08-30T12:38:14;19.90;99.90
7576;DHT22;3829;50.798;4.358;2023-08-30T12:40:52;19.90;99.90
7576;DHT22;3829;50.798;4.358;2023-08-30T12:43:18;20.00;99.90
7576;DHT22;3829;50.798;4.358;2023-08-30T12:45:45;19.80;99.90
7576;DHT22;3829;50.798;4.358;2023-08-30T12:48:12;19.60;99.90
7576;DHT22;3829;50.798;4.358;2023-08-30T12:50:43;19.70;99.90
7576;DHT22;3829;50.798;4.358;2023-08-30T12:53:09;20.10;99.90
7576;DHT22;3829;50.798;4.358;2023-08-30T12:55:35;20.50;99.90
7576;DHT22;3829;50.798;4.358;2023-08-30T12:58:01;20.50;99.90
7576;DHT22;3829;50.798;4.358;2023-08-30T13:00:28;20.40;99.90
7576;DHT22;3829;50.798;4.358;2023-08-30T13:02:54;20.20;99.90
7576;DHT22;3829;50.798;4.358;2023-08-30T13:05:20;20.00;99.90
7576;DHT22;3829;50.798;4.358;2023-08-30T13:07:47;20.20;99.90
7576;DHT22;3829;50.798;4.358;2023-08-30T13:10:12;20.40;99.90
7576;DHT22;3829;50.798;4.358;2023-08-30T13:12:38;20.30;99.90
7576;DHT22;3829;50.798;4.358;2023-08-30T13:15:04;20.50;99.90
7576;DHT22;3829;50.798;4.358;2023-08-30T13:17:30;20.70;99.90
7576;DHT22;3829;50.798;4.358;2023-08-30T13:19:56;21.00;99.90
7576;DHT22;3829;50.798;4.358;2023-08-30T13:22:24;21.60;99.90
7576;DHT22;3829;50.798;4.358;2023-08-30T13:24:50;21.90;99.90
7576;DHT22;3829;50.798;4.358;2023-08-30T13:27:16;21.60;99.90
7576;DHT22;3829;50.798;4.358;2023-08-30T13:29:41;21.10;99.90
7576;DHT22;3829;50.798;4.358;2023-08-30T13:32:07;20.80;99.90
7576;DHT22;3829;50.798;4.358;2023-08-30T13:34:32;20.60;99.90
7576;DHT22;3829;50.798;4.358;2023-08-30T13:36:58;20.30;99.90
7576;DHT22;3829;50.798;4.358;2023-08-30T13:39:24;20.40;99.90
7576;DHT22;3829;50.798;4.358;2023-08-30T13:41:49;20.70;99.90
7576;DHT22;3829;50.798;4.358;2023-08-30T13:44:15;20.50;99.90
7576;DHT22;3829;50.798;4.358;2023-08-30T13:46:43;20.50;99.90
7576;DHT22;3829;50.798;4.358;2023-08-30T13:49:09;20.60;99.90
7576;DHT22;3829;50.798;4.358;2023-08-30T13:51:35;20.60;99.90
7576;DHT22;3829;50.798;4.358;2023-08-30T13:54:02;21.00;99.90
7576;DHT22;3829;50.798;4.358;2023-08-30T13:56:28;20.90;99.90
7576;DHT22;3829;50.798;4.358;2023-08-30T13:58:56;21.00;99.90
7576;DHT22;3829;50.798;4.358;2023-08-30T14:01:22;21.10;99.90
7576;DHT22;3829;50.798;4.358;2023-08-30T14:03:48;21.50;99.90
7576;DHT22;3829;50.798;4.358;2023-08-30T14:06:13;21.80;99.90
7576;DHT22;3829;50.798;4.358;2023-08-30T14:08:39;22.30;99.90
7576;DHT22;3829;50.798;4.358;2023-08-30T14:11:05;23.10;99.90
7576;DHT22;3829;50.798;4.358;2023-08-30T14:13:31;23.00;99.90
7576;DHT22;3829;50.798;4.358;2023-08-30T14:15:59;22.50;99.90
7576;DHT22;3829;50.798;4.358;2023-08-30T14:18:26;23.20;99.90
7576;DHT22;3829;50.798;4.358;2023-08-30T14:20:55;23.80;99.90
7576;DHT22;3829;50.798;4.358;2023-08-30T14:23:21;23.20;99.90
7576;DHT22;3829;50.798;4.358;2023-08-30T14:25:55;22.70;99.90
7576;DHT22;3829;50.798;4.358;2023-08-30T14:28:21;22.00;99.90
7576;DHT22;3829;50.798;4.358;2023-08-30T14:30:47;22.00;99.90
7576;DHT22;3829;50.798;4.358;2023-08-30T14:33:12;21.70;99.90
7576;DHT22;3829;50.798;4.358;2023-08-30T14:35:41;21.60;99.90
7576;DHT22;3829;50.798;4.358;2023-08-30T14:38:07;21.30;99.90
7576;DHT22;3829;50.798;4.358;2023-08-30T14:40:33;21.40;99.90
7576;DHT22;3829;50.798;4.358;2023-08-30T14:42:58;21.50;99.90
7576;DHT22;3829;50.798;4.358;2023-08-30T14:45:24;21.60;99.90
7576;DHT22;3829;50.798;4.358;2023-08-30T14:47:49;21.40;99.90
7576;DHT22;3829;50.798;4.358;2023-08-30T14:50:15;21.80;99.90
7576;DHT22;3829;50.798;4.358;2023-08-30T14:52:40;22.70;99.90
7576;DHT22;3829;50.798;4.358;2023-08-30T14:55:07;23.70;99.90
7576;DHT22;3829;50.798;4.358;2023-08-30T14:57:32;23.80;99.90
7576;DHT22;3829;50.798;4.358;2023-08-30T14:59:58;23.60;99.90
7576;DHT22;3829;50.798;4.358;2023-08-30T15:02:23;22.70;99.90
7576;DHT22;3829;50.798;4.358;2023-08-30T15:04:50;21.90;99.90
7576;DHT22;3829;50.798;4.358;2023-08-30T15:07:15;21.50;99.90
7576;DHT22;3829;50.798;4.358;2023-08-30T15:09:41;21.00;99.90
7576;DHT22;3829;50.798;4.358;2023-08-30T15:12:06;20.80;99.90
7576;DHT22;3829;50.798;4.358;2023-08-30T15:14:32;21.20;99.90
7576;DHT22;3829;50.798;4.358;2023-08-30T15:16:59;22.00;99.90
7576;DHT22;3829;50.798;4.358;2023-08-30T15:19:25;22.50;99.90
7576;DHT22;3829;50.798;4.358;2023-08-30T15:21:50;22.20;99.90
7576;DHT22;3829;50.798;4.358;2023-08-30T15:24:16;22.80;99.90
7576;DHT22;3829;50.798;4.358;2023-08-30T15:26:43;22.20;99.90
7576;DHT22;3829;50.798;4.358;2023-08-30T15:29:09;22.30;99.90
7576;DHT22;3829;50.798;4.358;2023-08-30T15:31:35;22.30;99.90
7576;DHT22;3829;50.798;4.358;2023-08-30T15:34:00;22.00;99.90
7576;DHT22;3829;50.798;4.358;2023-08-30T15:36:26;22.00;99.90
7576;DHT22;3829;50.798;4.358;2023-08-30T15:38:51;22.40;99.90
7576;DHT22;3829;50.798;4.358;2023-08-30T15:41:17;23.40;99.90
7576;DHT22;3829;50.798;4.358;2023-08-30T15:43:42;24.10;99.90
7576;DHT22;3829;50.798;4.358;2023-08-30T15:46:10;25.00;99.90
7576;DHT22;3829;50.798;4.358;2023-08-30T15:48:36;25.40;99.90
7576;DHT22;3829;50.798;4.358;2023-08-30T15:51:02;25.20;99.90
7576;DHT22;3829;50.798;4.358;2023-08-30T15:53:28;24.80;99.90
7576;DHT22;3829;50.798;4.358;2023-08-30T15:55:54;25.70;99.90
7576;DHT22;3829;50.798;4.358;2023-08-30T15:58:20;26.00;99.90
7576;DHT22;3829;50.798;4.358;2023-08-30T16:00:46;26.50;99.90